sensor_id;sensor_type;location;lat;lon;timestamp;temperature;humidity
4811;DHT22;2419;51.276;6.472;2022-08-21T00:00:28;16.00;99.90
4811;DHT22;2419;51.276;6.472;2022-08-21T00:03:00;16.00;99.90
4811;DHT22;2419;51.276;6.472;2022-08-21T00:05:35;15.90;99.90
4811;DHT22;2419;51.276;6.472;2022-08-21T00:08:04;15.80;99.90
4811;DHT22;2419;51.276;6.472;2022-08-21T00:10:33;15.70;99.90
4811;DHT22;2419;51.276;6.472;2022-08-21T00:13:01;15.60;99.90
4811;DHT22;2419;51.276;6.472;2022-08-21T00:15:31;15.60;99.90
4811;DHT22;2419;51.276;6.472;2022-08-21T00:18:00;15.60;99.90
4811;DHT22;2419;51.276;6.472;2022-08-21T00:20:28;15.70;99.90
4811;DHT22;2419;51.276;6.472;2022-08-21T00:22:58;15.60;99.90
4811;DHT22;2419;51.276;6.472;2022-08-21T00:25:27;15.60;99.90
4811;DHT22;2419;51.276;6.472;2022-08-21T00:27:55;15.60;99.90
4811;DHT22;2419;51.276;6.472;2022-08-21T00:30:25;15.50;99.90
4811;DHT22;2419;51.276;6.472;2022-08-21T00:32:55;15.50;99.90
4811;DHT22;2419;51.276;6.472;2022-08-21T00:35:27;15.40;99.90
4811;DHT22;2419;51.276;6.472;2022-08-21T00:37:57;15.30;99.90
4811;DHT22;2419;51.276;6.472;2022-08-21T00:40:29;15.30;99.90
4811;DHT22;2419;51.276;6.472;2022-08-21T00:42:58;15.30;99.90
4811;DHT22;2419;51.276;6.472;2022-08-21T00:45:26;15.30;99.90
4811;DHT22;2419;51.276;6.472;2022-08-21T00:47:55;15.30;99.90
4811;DHT22;2419;51.276;6.472;2022-08-21T00:50:26;15.50;99.90
4811;DHT22;2419;51.276;6.472;2022-08-21T00:52:58;15.40;99.90
4811;DHT22;2419;51.276;6.472;2022-08-21T00:55:28;15.40;99.90
4811;DHT22;2419;51.276;6.472;2022-08-21T00:57:59;15.30;99.90
4811;DHT22;2419;51.276;6.472;2022-08-21T01:00:31;15.40;99.90
4811;DHT22;2419;51.276;6.472;2022-08-21T01:03:04;15.50;99.90
4811;DHT22;2419;51.276;6.472;2022-08-21T01:05:35;15.50;99.90
4811;DHT22;2419;51.276;6.472;2022-08-21T01:08:06;15.40;99.90
4811;DHT22;2419;51.276;6.472;2022-08-21T01:10:35;15.40;99.90
4811;DHT22;2419;51.276;6.472;2022-08-21T01:13:05;15.40;99.90
4811;DHT22;2419;51.276;6.472;2022-08-21T01:15:36;15.40;99.90
4811;DHT22;2419;51.276;6.472;2022-08-21T01:18:07;15.50;99.90
4811;DHT22;2419;51.276;6.472;2022-08-21T01:20:36;15.30;99.90
4811;DHT22;2419;51.276;6.472;2022-08-21T01:23:06;15.50;99.90
4811;DHT22;2419;51.276;6.472;2022-08-21T01:25:35;15.50;99.90
4811;DHT22;2419;51.276;6.472;2022-08-21T01:28:09;15.40;99.90
4811;DHT22;2419;51.276;6.472;2022-08-21T01:30:40;15.30;99.90
4811;DHT22;2419;51.276;6.472;2022-08-21T01:33:09;15.20;99.90
4811;DHT22;2419;51.276;6.472;2022-08-21T01:35:38;15.10;99.90
4811;DHT22;2419;51.276;6.472;2022-08-21T01:38:07;15.10;99.90
4811;DHT22;2419;51.276;6.472;2022-08-21T01:40:35;15.10;99.90
4811;DHT22;2419;51.276;6.472;2022-08-21T01:43:03;15.10;99.90
4811;DHT22;2419;51.276;6.472;2022-08-21T01:45:32;15.10;99.90
4811;DHT22;2419;51.276;6.472;2022-08-21T01:48:00;15.00;99.90
4811;DHT22;2419;51.276;6.472;2022-08-21T01:50:29;15.00;99.90
4811;DHT22;2419;51.276;6.472;2022-08-21T01:52:58;15.00;99.90
4811;DHT22;2419;51.276;6.472;2022-08-21T01:55:27;15.00;99.90
4811;DHT22;2419;51.276;6.472;2022-08-21T01:57:57;15.00;99.90
4811;DHT22;2419;51.276;6.472;2022-08-21T02:00:26;15.00;99.90
4811;DHT22;2419;51.276;6.472;2022-08-21T02:02:54;15.00;99.90
4811;DHT22;2419;51.276;6.472;2022-08-21T02:05:22;15.00;99.90
4811;DHT22;2419;51.276;6.472;2022-08-21T02:07:52;15.00;99.90
4811;DHT22;2419;51.276;6.472;2022-08-21T02:10:23;15.00;99.90
4811;DHT22;2419;51.276;6.472;2022-08-21T02:12:55;14.90;99.90
4811;DHT22;2419;51.276;6.472;2022-08-21T02:15:23;14.90;99.90
4811;DHT22;2419;51.276;6.472;2022-08-21T02:17:54;14.90;99.90
4811;DHT22;2419;51.276;6.472;2022-08-21T02:20:24;14.80;99.90
4811;DHT22;2419;51.276;6.472;2022-08-21T02:22:53;14.80;99.90
4811;DHT22;2419;51.276;6.472;2022-08-21T02:25:23;14.70;99.90
4811;DHT22;2419;51.276;6.472;2022-08-21T02:27:53;14.50;99.90
4811;DHT22;2419;51.276;6.472;2022-08-21T02:30:27;14.40;99.90
4811;DHT22;2419;51.276;6.472;2022-08-21T02:32:57;14.50;99.90
4811;DHT22;2419;51.276;6.472;2022-08-21T02:35:26;14.50;99.90
4811;DHT22;2419;51.276;6.472;2022-08-21T02:37:58;14.60;99.90
4811;DHT22;2419;51.276;6.472;2022-08-21T02:40:28;14.60;99.90
4811;DHT22;2419;51.276;6.472;2022-08-21T02:42:59;14.60;99.90
4811;DHT22;2419;51.276;6.472;2022-08-21T02:45:28;14.60;99.90
4811;DHT22;2419;51.276;6.472;2022-08-21T02:47:59;14.40;99.90
4811;DHT22;2419;51.276;6.472;2022-08-21T02:50:33;14.40;99.90
4811;DHT22;2419;51.276;6.472;2022-08-21T02:53:02;14.50;99.90
4811;DHT22;2419;51.276;6.472;2022-08-21T02:55:32;14.50;99.90
4811;DHT22;2419;51.276;6.472;2022-08-21T02:58:02;14.50;99.90
4811;DHT22;2419;51.276;6.472;2022-08-21T03:00:31;14.40;99.90
4811;DHT22;2419;51.276;6.472;2022-08-21T03:03:00;14.40;99.90
4811;DHT22;2419;51.276;6.472;2022-08-21T03:05:29;14.30;99.90
4811;DHT22;2419;51.276;6.472;2022-08-21T03:07:59;14.30;99.90
4811;DHT22;2419;51.276;6.472;2022-08-21T03:10:28;14.40;99.90
4811;DHT22;2419;51.276;6.472;2022-08-21T03:12:57;14.20;99.90
4811;DHT22;2419;51.276;6.472;2022-08-21T03:15:27;14.10;99.90
4811;DHT22;2419;51.276;6.472;2022-08-21T03:17:55;14.30;99.90
4811;DHT22;2419;51.276;6.472;2022-08-21T03:20:26;14.40;99.90
4811;DHT22;2419;51.276;6.472;2022-08-21T03:22:55;14.50;99.90
4811;DHT22;2419;51.276;6.472;2022-08-21T03:25:26;14.50;99.90
4811;DHT22;2419;51.276;6.472;2022-08-21T03:28:08;14.50;99.90
4811;DHT22;2419;51.276;6.472;2022-08-21T03:30:40;14.50;99.90
4811;DHT22;2419;51.276;6.472;2022-08-21T03:33:09;14.40;99.90
4811;DHT22;2419;51.276;6.472;2022-08-21T03:35:38;14.40;99.90
4811;DHT22;2419;51.276;6.472;2022-08-21T03:38:07;14.40;99.90
4811;DHT22;2419;51.276;6.472;2022-08-21T03:40:35;14.20;99.90
4811;DHT22;2419;51.276;6.472;2022-08-21T03:43:03;14.20;99.90
4811;DHT22;2419;51.276;6.472;2022-08-21T03:45:33;14.20;99.90
4811;DHT22;2419;51.276;6.472;2022-08-21T03:48:04;14.20;99.90
4811;DHT22;2419;51.276;6.472;2022-08-21T03:50:35;14.10;99.90
4811;DHT22;2419;51.276;6.472;2022-08-21T03:53:07;14.10;99.90
4811;DHT22;2419;51.276;6.472;2022-08-21T03:55:44;14.10;99.90
4811;DHT22;2419;51.276;6.472;2022-08-21T03:58:13;14.00;99.90
4811;DHT22;2419;51.276;6.472;2022-08-21T04:00:44;14.00;99.90
4811;DHT22;2419;51.276;6.472;2022-08-21T04:03:15;14.00;99.90
4811;DHT22;2419;51.276;6.472;2022-08-21T04:05:43;14.00;99.90
4811;DHT22;2419;51.276;6.472;2022-08-21T04:08:14;14.00;99.90
4811;DHT22;2419;51.276;6.472;2022-08-21T04:10:45;14.10;99.90
4811;DHT22;2419;51.276;6.472;2022-08-21T04:13:14;14.20;99.90
4811;DHT22;2419;51.276;6.472;2022-08-21T04:15:42;14.30;99.90
4811;DHT22;2419;51.276;6.472;2022-08-21T04:18:11;14.40;99.90
4811;DHT22;2419;51.276;6.472;2022-08-21T04:20:42;14.50;99.90
4811;DHT22;2419;51.276;6.472;2022-08-21T04:23:16;14.50;99.90
4811;DHT22;2419;51.276;6.472;2022-08-21T04:25:50;14.60;99.90
4811;DHT22;2419;51.276;6.472;2022-08-21T04:28:18;14.60;99.90
4811;DHT22;2419;51.276;6.472;2022-08-21T04:30:49;14.60;99.90
4811;DHT22;2419;51.276;6.472;2022-08-21T04:33:18;14.60;99.90
4811;DHT22;2419;51.276;6.472;2022-08-21T04:35:48;14.70;99.90
4811;DHT22;2419;51.276;6.472;2022-08-21T04:38:17;14.70;99.90
4811;DHT22;2419;51.276;6.472;2022-08-21T04:40:46;14.60;99.90
4811;DHT22;2419;51.276;6.472;2022-08-21T04:43:14;14.60;99.90
4811;DHT22;2419;51.276;6.472;2022-08-21T04:45:45;14.70;99.90
4811;DHT22;2419;51.276;6.472;2022-08-21T04:48:15;14.70;99.90
4811;DHT22;2419;51.276;6.472;2022-08-21T04:50:49;14.70;99.90
4811;DHT22;2419;51.276;6.472;2022-08-21T04:53:22;14.70;99.90
4811;DHT22;2419;51.276;6.472;2022-08-21T04:55:52;14.80;99.90
4811;DHT22;2419;51.276;6.472;2022-08-21T04:58:22;14.80;99.90
4811;DHT22;2419;51.276;6.472;2022-08-21T05:00:54;14.80;99.90
4811;DHT22;2419;51.276;6.472;2022-08-21T05:03:22;14.80;99.90
4811;DHT22;2419;51.276;6.472;2022-08-21T05:05:52;14.90;99.90
4811;DHT22;2419;51.276;6.472;2022-08-21T05:08:23;14.90;99.90
4811;DHT22;2419;51.276;6.472;2022-08-21T05:10:52;15.10;99.90
4811;DHT22;2419;51.276;6.472;2022-08-21T05:13:26;15.50;99.90
4811;DHT22;2419;51.276;6.472;2022-08-21T05:15:54;16.00;99.90
4811;DHT22;2419;51.276;6.472;2022-08-21T05:18:22;16.40;99.90
4811;DHT22;2419;51.276;6.472;2022-08-21T05:20:52;17.00;99.90
4811;DHT22;2419;51.276;6.472;2022-08-21T05:23:20;16.90;99.90
4811;DHT22;2419;51.276;6.472;2022-08-21T05:25:49;16.70;99.90
4811;DHT22;2419;51.276;6.472;2022-08-21T05:28:17;16.20;99.90
4811;DHT22;2419;51.276;6.472;2022-08-21T05:30:46;15.80;99.90
4811;DHT22;2419;51.276;6.472;2022-08-21T05:33:21;15.80;99.90
4811;DHT22;2419;51.276;6.472;2022-08-21T05:35:51;15.60;99.90
4811;DHT22;2419;51.276;6.472;2022-08-21T05:38:20;15.70;99.90
4811;DHT22;2419;51.276;6.472;2022-08-21T05:40:48;15.60;99.90
4811;DHT22;2419;51.276;6.472;2022-08-21T05:43:16;15.60;99.90
4811;DHT22;2419;51.276;6.472;2022-08-21T05:45:44;15.70;99.90
4811;DHT22;2419;51.276;6.472;2022-08-21T05:48:14;15.60;99.90
4811;DHT22;2419;51.276;6.472;2022-08-21T05:50:44;15.80;99.90
4811;DHT22;2419;51.276;6.472;2022-08-21T05:53:15;15.80;99.90
4811;DHT22;2419;51.276;6.472;2022-08-21T05:55:44;15.80;99.90
4811;DHT22;2419;51.276;6.472;2022-08-21T05:58:13;15.80;99.90
4811;DHT22;2419;51.276;6.472;2022-08-21T06:00:42;15.70;99.90
4811;DHT22;2419;51.276;6.472;2022-08-21T06:03:12;15.80;99.90
4811;DHT22;2419;51.276;6.472;2022-08-21T06:05:40;15.80;99.90
4811;DHT22;2419;51.276;6.472;2022-08-21T06:08:08;15.90;99.90
4811;DHT22;2419;51.276;6.472;2022-08-21T06:10:38;16.00;99.90
4811;DHT22;2419;51.276;6.472;2022-08-21T06:13:06;16.20;99.90
4811;DHT22;2419;51.276;6.472;2022-08-21T06:15:35;16.20;99.90
4811;DHT22;2419;51.276;6.472;2022-08-21T06:18:03;16.20;99.90
4811;DHT22;2419;51.276;6.472;2022-08-21T06:20:31;16.20;99.90
4811;DHT22;2419;51.276;6.472;2022-08-21T06:23:00;16.30;99.90
4811;DHT22;2419;51.276;6.472;2022-08-21T06:25:29;16.60;99.90
4811;DHT22;2419;51.276;6.472;2022-08-21T06:28:03;16.70;99.90
4811;DHT22;2419;51.276;6.472;2022-08-21T06:30:32;16.70;99.90
4811;DHT22;2419;51.276;6.472;2022-08-21T06:33:00;16.80;99.90
4811;DHT22;2419;51.276;6.472;2022-08-21T06:35:30;16.80;99.90
4811;DHT22;2419;51.276;6.472;2022-08-21T06:37:58;16.80;99.90
4811;DHT22;2419;51.276;6.472;2022-08-21T06:40:27;16.90;99.90
4811;DHT22;2419;51.276;6.472;2022-08-21T06:42:56;17.00;99.90
4811;DHT22;2419;51.276;6.472;2022-08-21T06:45:29;17.00;99.90
4811;DHT22;2419;51.276;6.472;2022-08-21T06:47:58;17.00;99.90
4811;DHT22;2419;51.276;6.472;2022-08-21T06:50:26;17.00;99.90
4811;DHT22;2419;51.276;6.472;2022-08-21T06:53:02;17.20;99.90
4811;DHT22;2419;51.276;6.472;2022-08-21T06:55:30;17.30;99.90
4811;DHT22;2419;51.276;6.472;2022-08-21T06:57:59;17.50;99.90
4811;DHT22;2419;51.276;6.472;2022-08-21T07:00:29;17.70;99.90
4811;DHT22;2419;51.276;6.472;2022-08-21T07:02:57;18.10;99.90
4811;DHT22;2419;51.276;6.472;2022-08-21T07:05:26;18.20;99.90
4811;DHT22;2419;51.276;6.472;2022-08-21T07:07:55;18.00;99.90
4811;DHT22;2419;51.276;6.472;2022-08-21T07:10:24;18.10;99.90
4811;DHT22;2419;51.276;6.472;2022-08-21T07:12:53;18.10;99.90
4811;DHT22;2419;51.276;6.472;2022-08-21T07:15:29;18.30;99.90
4811;DHT22;2419;51.276;6.472;2022-08-21T07:17:57;18.20;99.90
4811;DHT22;2419;51.276;6.472;2022-08-21T07:20:26;18.30;99.90
4811;DHT22;2419;51.276;6.472;2022-08-21T07:22:55;18.20;99.90
4811;DHT22;2419;51.276;6.472;2022-08-21T07:25:24;18.20;99.90
4811;DHT22;2419;51.276;6.472;2022-08-21T07:27:52;18.30;99.90
4811;DHT22;2419;51.276;6.472;2022-08-21T07:30:20;18.30;99.90
4811;DHT22;2419;51.276;6.472;2022-08-21T07:32:50;18.40;99.90
4811;DHT22;2419;51.276;6.472;2022-08-21T07:35:19;18.50;99.90
4811;DHT22;2419;51.276;6.472;2022-08-21T07:37:48;18.70;99.90
4811;DHT22;2419;51.276;6.472;2022-08-21T07:40:17;18.70;99.90
4811;DHT22;2419;51.276;6.472;2022-08-21T07:42:47;18.70;99.90
4811;DHT22;2419;51.276;6.472;2022-08-21T07:45:19;18.70;99.90
4811;DHT22;2419;51.276;6.472;2022-08-21T07:47:49;18.80;99.90
4811;DHT22;2419;51.276;6.472;2022-08-21T07:50:23;18.80;99.90
4811;DHT22;2419;51.276;6.472;2022-08-21T07:52:52;18.80;99.90
4811;DHT22;2419;51.276;6.472;2022-08-21T07:55:21;18.80;99.90
4811;DHT22;2419;51.276;6.472;2022-08-21T07:57:50;18.90;99.90
4811;DHT22;2419;51.276;6.472;2022-08-21T08:00:21;19.00;99.90
4811;DHT22;2419;51.276;6.472;2022-08-21T08:02:52;19.10;99.90
4811;DHT22;2419;51.276;6.472;2022-08-21T08:05:23;19.10;99.90
4811;DHT22;2419;51.276;6.472;2022-08-21T08:07:52;19.20;99.90
4811;DHT22;2419;51.276;6.472;2022-08-21T08:10:21;19.40;99.90
4811;DHT22;2419;51.276;6.472;2022-08-21T08:12:50;19.60;99.90
4811;DHT22;2419;51.276;6.472;2022-08-21T08:15:21;19.70;99.90
4811;DHT22;2419;51.276;6.472;2022-08-21T08:17:52;19.80;99.90
4811;DHT22;2419;51.276;6.472;2022-08-21T08:20:22;19.80;99.90
4811;DHT22;2419;51.276;6.472;2022-08-21T08:22:52;20.00;99.90
4811;DHT22;2419;51.276;6.472;2022-08-21T08:25:25;20.20;99.90
4811;DHT22;2419;51.276;6.472;2022-08-21T08:28:02;20.10;99.90
4811;DHT22;2419;51.276;6.472;2022-08-21T08:30:44;20.00;99.90
4811;DHT22;2419;51.276;6.472;2022-08-21T08:33:16;20.10;99.90
4811;DHT22;2419;51.276;6.472;2022-08-21T08:35:46;20.30;99.90
4811;DHT22;2419;51.276;6.472;2022-08-21T08:38:15;20.70;99.90
4811;DHT22;2419;51.276;6.472;2022-08-21T08:40:52;20.70;99.90
4811;DHT22;2419;51.276;6.472;2022-08-21T08:43:22;20.40;99.90
4811;DHT22;2419;51.276;6.472;2022-08-21T08:45:51;20.40;99.90
4811;DHT22;2419;51.276;6.472;2022-08-21T08:48:34;20.50;99.90
4811;DHT22;2419;51.276;6.472;2022-08-21T08:51:06;20.50;99.90
4811;DHT22;2419;51.276;6.472;2022-08-21T08:53:44;20.70;99.90
4811;DHT22;2419;51.276;6.472;2022-08-21T08:56:14;20.90;99.90
4811;DHT22;2419;51.276;6.472;2022-08-21T09:01:57;20.60;99.90
4811;DHT22;2419;51.276;6.472;2022-08-21T09:04:27;20.50;99.90
4811;DHT22;2419;51.276;6.472;2022-08-21T09:07:04;20.60;99.90
4811;DHT22;2419;51.276;6.472;2022-08-21T09:09:45;20.80;99.90
4811;DHT22;2419;51.276;6.472;2022-08-21T09:12:22;20.90;99.90
4811;DHT22;2419;51.276;6.472;2022-08-21T09:15:00;20.80;99.90
4811;DHT22;2419;51.276;6.472;2022-08-21T09:17:37;20.90;99.90
4811;DHT22;2419;51.276;6.472;2022-08-21T09:20:21;21.00;99.90
4811;DHT22;2419;51.276;6.472;2022-08-21T09:22:59;21.20;99.90
4811;DHT22;2419;51.276;6.472;2022-08-21T09:25:33;21.40;99.90
4811;DHT22;2419;51.276;6.472;2022-08-21T09:28:02;21.60;99.90
4811;DHT22;2419;51.276;6.472;2022-08-21T09:30:32;21.60;99.90
4811;DHT22;2419;51.276;6.472;2022-08-21T09:33:00;21.80;99.90
4811;DHT22;2419;51.276;6.472;2022-08-21T09:35:30;22.10;99.90
4811;DHT22;2419;51.276;6.472;2022-08-21T09:38:01;22.00;99.90
4811;DHT22;2419;51.276;6.472;2022-08-21T09:40:35;22.10;99.90
4811;DHT22;2419;51.276;6.472;2022-08-21T09:43:07;21.80;99.90
4811;DHT22;2419;51.276;6.472;2022-08-21T09:45:46;21.70;99.90
4811;DHT22;2419;51.276;6.472;2022-08-21T09:48:20;21.40;99.90
4811;DHT22;2419;51.276;6.472;2022-08-21T09:51:09;21.20;99.90
4811;DHT22;2419;51.276;6.472;2022-08-21T09:53:43;21.30;99.90
4811;DHT22;2419;51.276;6.472;2022-08-21T09:56:28;21.40;99.90
4811;DHT22;2419;51.276;6.472;2022-08-21T09:59:26;21.60;99.90
4811;DHT22;2419;51.276;6.472;2022-08-21T10:02:23;22.10;99.90
4811;DHT22;2419;51.276;6.472;2022-08-21T10:04:53;23.40;99.90
4811;DHT22;2419;51.276;6.472;2022-08-21T10:07:24;24.30;98.70
4811;DHT22;2419;51.276;6.472;2022-08-21T10:10:02;25.90;92.80
4811;DHT22;2419;51.276;6.472;2022-08-21T10:12:39;25.20;92.20
4811;DHT22;2419;51.276;6.472;2022-08-21T10:15:15;25.40;94.40
4811;DHT22;2419;51.276;6.472;2022-08-21T10:17:54;26.60;90.90
4811;DHT22;2419;51.276;6.472;2022-08-21T10:20:29;27.00;86.50
4811;DHT22;2419;51.276;6.472;2022-08-21T10:23:12;27.20;86.40
4811;DHT22;2419;51.276;6.472;2022-08-21T10:25:49;27.50;86.00
4811;DHT22;2419;51.276;6.472;2022-08-21T10:28:44;28.00;82.10
4811;DHT22;2419;51.276;6.472;2022-08-21T10:31:28;28.00;81.50
4811;DHT22;2419;51.276;6.472;2022-08-21T10:34:10;27.30;81.70
4811;DHT22;2419;51.276;6.472;2022-08-21T10:36:46;26.30;86.00
4811;DHT22;2419;51.276;6.472;2022-08-21T10:39:21;26.30;85.50
4811;DHT22;2419;51.276;6.472;2022-08-21T10:42:25;26.00;85.90
4811;DHT22;2419;51.276;6.472;2022-08-21T10:45:21;27.20;80.50
4811;DHT22;2419;51.276;6.472;2022-08-21T10:47:53;26.80;81.40
4811;DHT22;2419;51.276;6.472;2022-08-21T10:50:30;27.10;82.00
4811;DHT22;2419;51.276;6.472;2022-08-21T10:53:09;27.70;80.90
4811;DHT22;2419;51.276;6.472;2022-08-21T10:55:51;26.70;80.50
4811;DHT22;2419;51.276;6.472;2022-08-21T10:58:25;27.00;80.00
4811;DHT22;2419;51.276;6.472;2022-08-21T11:00:58;26.60;80.90
4811;DHT22;2419;51.276;6.472;2022-08-21T11:03:33;27.60;80.20
4811;DHT22;2419;51.276;6.472;2022-08-21T11:06:07;26.80;79.00
4811;DHT22;2419;51.276;6.472;2022-08-21T11:08:40;25.80;83.10
4811;DHT22;2419;51.276;6.472;2022-08-21T11:11:15;25.30;87.70
4811;DHT22;2419;51.276;6.472;2022-08-21T11:13:51;25.70;86.10
4811;DHT22;2419;51.276;6.472;2022-08-21T11:16:26;25.80;85.00
4811;DHT22;2419;51.276;6.472;2022-08-21T11:19:19;26.40;82.90
4811;DHT22;2419;51.276;6.472;2022-08-21T11:21:54;26.90;81.10
4811;DHT22;2419;51.276;6.472;2022-08-21T11:24:42;26.50;83.40
4811;DHT22;2419;51.276;6.472;2022-08-21T11:27:23;26.90;84.50
4811;DHT22;2419;51.276;6.472;2022-08-21T11:29:54;28.20;76.10
4811;DHT22;2419;51.276;6.472;2022-08-21T11:32:37;28.20;76.00
4811;DHT22;2419;51.276;6.472;2022-08-21T11:35:13;27.30;78.00
4811;DHT22;2419;51.276;6.472;2022-08-21T11:37:52;27.30;80.30
4811;DHT22;2419;51.276;6.472;2022-08-21T11:40:32;27.70;77.90
4811;DHT22;2419;51.276;6.472;2022-08-21T11:43:12;28.40;77.00
4811;DHT22;2419;51.276;6.472;2022-08-21T11:45:48;29.10;74.60
4811;DHT22;2419;51.276;6.472;2022-08-21T11:48:31;28.10;75.40
4811;DHT22;2419;51.276;6.472;2022-08-21T11:51:05;28.60;74.80
4811;DHT22;2419;51.276;6.472;2022-08-21T11:53:38;29.30;73.50
4811;DHT22;2419;51.276;6.472;2022-08-21T11:56:11;29.70;71.60
4811;DHT22;2419;51.276;6.472;2022-08-21T11:58:44;28.90;72.40
4811;DHT22;2419;51.276;6.472;2022-08-21T12:01:15;28.20;74.20
4811;DHT22;2419;51.276;6.472;2022-08-21T12:03:54;27.20;74.70
4811;DHT22;2419;51.276;6.472;2022-08-21T12:06:31;26.40;77.80
4811;DHT22;2419;51.276;6.472;2022-08-21T12:09:03;26.40;80.30
4811;DHT22;2419;51.276;6.472;2022-08-21T12:11:31;27.10;76.60
4811;DHT22;2419;51.276;6.472;2022-08-21T12:14:16;27.90;76.00
4811;DHT22;2419;51.276;6.472;2022-08-21T12:16:47;28.40;70.70
4811;DHT22;2419;51.276;6.472;2022-08-21T12:19:29;28.10;72.80
4811;DHT22;2419;51.276;6.472;2022-08-21T12:22:07;27.50;72.90
4811;DHT22;2419;51.276;6.472;2022-08-21T12:24:39;27.80;71.60
4811;DHT22;2419;51.276;6.472;2022-08-21T12:27:30;27.50;71.90
4811;DHT22;2419;51.276;6.472;2022-08-21T12:30:21;27.30;73.60
4811;DHT22;2419;51.276;6.472;2022-08-21T12:32:59;28.30;70.70
4811;DHT22;2419;51.276;6.472;2022-08-21T12:35:36;27.60;71.90
4811;DHT22;2419;51.276;6.472;2022-08-21T12:38:12;26.80;74.60
4811;DHT22;2419;51.276;6.472;2022-08-21T12:40:47;27.40;74.20
4811;DHT22;2419;51.276;6.472;2022-08-21T12:43:24;27.80;73.40
4811;DHT22;2419;51.276;6.472;2022-08-21T12:45:54;27.70;73.00
4811;DHT22;2419;51.276;6.472;2022-08-21T12:48:26;28.50;71.90
4811;DHT22;2419;51.276;6.472;2022-08-21T12:50:58;29.70;71.70
4811;DHT22;2419;51.276;6.472;2022-08-21T12:53:38;29.50;69.80
4811;DHT22;2419;51.276;6.472;2022-08-21T12:56:10;28.70;70.60
4811;DHT22;2419;51.276;6.472;2022-08-21T12:58:41;29.10;71.20
4811;DHT22;2419;51.276;6.472;2022-08-21T13:01:16;28.90;73.00
4811;DHT22;2419;51.276;6.472;2022-08-21T13:03:48;28.80;69.00
4811;DHT22;2419;51.276;6.472;2022-08-21T13:06:36;28.30;68.80
4811;DHT22;2419;51.276;6.472;2022-08-21T13:09:07;27.80;70.40
4811;DHT22;2419;51.276;6.472;2022-08-21T13:11:36;27.30;71.90
4811;DHT22;2419;51.276;6.472;2022-08-21T13:14:14;27.60;73.40
4811;DHT22;2419;51.276;6.472;2022-08-21T13:16:47;28.10;71.40
4811;DHT22;2419;51.276;6.472;2022-08-21T13:19:17;28.50;69.40
4811;DHT22;2419;51.276;6.472;2022-08-21T13:21:50;28.70;69.20
4811;DHT22;2419;51.276;6.472;2022-08-21T13:24:21;28.60;69.70
4811;DHT22;2419;51.276;6.472;2022-08-21T13:27:20;28.00;69.50
4811;DHT22;2419;51.276;6.472;2022-08-21T13:30:00;26.90;73.90
4811;DHT22;2419;51.276;6.472;2022-08-21T13:32:32;26.70;75.20
4811;DHT22;2419;51.276;6.472;2022-08-21T13:35:09;27.30;76.50
4811;DHT22;2419;51.276;6.472;2022-08-21T13:37:39;27.70;75.10
4811;DHT22;2419;51.276;6.472;2022-08-21T13:40:13;27.80;73.60
4811;DHT22;2419;51.276;6.472;2022-08-21T13:42:44;27.50;72.10
4811;DHT22;2419;51.276;6.472;2022-08-21T13:45:16;27.10;75.70
4811;DHT22;2419;51.276;6.472;2022-08-21T13:47:47;27.40;75.40
4811;DHT22;2419;51.276;6.472;2022-08-21T13:50:16;27.40;74.60
4811;DHT22;2419;51.276;6.472;2022-08-21T13:52:56;27.00;73.60
4811;DHT22;2419;51.276;6.472;2022-08-21T13:55:34;27.40;75.50
4811;DHT22;2419;51.276;6.472;2022-08-21T13:58:04;27.00;75.00
4811;DHT22;2419;51.276;6.472;2022-08-21T14:00:34;26.90;75.80
4811;DHT22;2419;51.276;6.472;2022-08-21T14:03:07;26.50;75.30
4811;DHT22;2419;51.276;6.472;2022-08-21T14:05:43;26.50;77.40
4811;DHT22;2419;51.276;6.472;2022-08-21T14:08:14;26.70;75.00
4811;DHT22;2419;51.276;6.472;2022-08-21T14:10:45;26.80;76.90
4811;DHT22;2419;51.276;6.472;2022-08-21T14:13:34;27.10;75.70
4811;DHT22;2419;51.276;6.472;2022-08-21T14:16:12;27.00;75.80
4811;DHT22;2419;51.276;6.472;2022-08-21T14:18:52;27.00;76.10
4811;DHT22;2419;51.276;6.472;2022-08-21T14:21:30;27.00;74.90
4811;DHT22;2419;51.276;6.472;2022-08-21T14:24:04;26.60;73.20
4811;DHT22;2419;51.276;6.472;2022-08-21T14:26:35;26.60;73.30
4811;DHT22;2419;51.276;6.472;2022-08-21T14:29:08;26.20;76.10
4811;DHT22;2419;51.276;6.472;2022-08-21T14:31:37;26.40;74.20
4811;DHT22;2419;51.276;6.472;2022-08-21T14:34:12;26.10;73.60
4811;DHT22;2419;51.276;6.472;2022-08-21T14:36:46;26.20;71.90
4811;DHT22;2419;51.276;6.472;2022-08-21T14:39:15;26.30;71.80
4811;DHT22;2419;51.276;6.472;2022-08-21T14:41:43;26.30;71.30
4811;DHT22;2419;51.276;6.472;2022-08-21T14:44:18;26.00;69.60
4811;DHT22;2419;51.276;6.472;2022-08-21T14:46:47;26.00;70.20
4811;DHT22;2419;51.276;6.472;2022-08-21T14:49:25;26.10;72.00
4811;DHT22;2419;51.276;6.472;2022-08-21T14:51:55;26.20;74.50
4811;DHT22;2419;51.276;6.472;2022-08-21T14:54:26;26.40;75.30
4811;DHT22;2419;51.276;6.472;2022-08-21T14:57:00;26.60;72.40
4811;DHT22;2419;51.276;6.472;2022-08-21T14:59:30;26.10;71.90
4811;DHT22;2419;51.276;6.472;2022-08-21T15:01:59;25.90;73.00
4811;DHT22;2419;51.276;6.472;2022-08-21T15:04:34;26.30;73.10
4811;DHT22;2419;51.276;6.472;2022-08-21T15:07:03;26.40;73.00
4811;DHT22;2419;51.276;6.472;2022-08-21T15:09:31;26.70;72.20
4811;DHT22;2419;51.276;6.472;2022-08-21T15:12:01;26.10;71.60
4811;DHT22;2419;51.276;6.472;2022-08-21T15:14:33;26.30;72.20
4811;DHT22;2419;51.276;6.472;2022-08-21T15:17:02;26.40;73.30
4811;DHT22;2419;51.276;6.472;2022-08-21T15:19:32;26.60;69.50
4811;DHT22;2419;51.276;6.472;2022-08-21T15:22:01;26.50;73.00
4811;DHT22;2419;51.276;6.472;2022-08-21T15:24:29;26.60;68.80
4811;DHT22;2419;51.276;6.472;2022-08-21T15:27:00;26.00;70.30
4811;DHT22;2419;51.276;6.472;2022-08-21T15:29:30;26.00;70.40
4811;DHT22;2419;51.276;6.472;2022-08-21T15:32:24;26.10;69.50
4811;DHT22;2419;51.276;6.472;2022-08-21T15:35:21;26.00;69.30
4811;DHT22;2419;51.276;6.472;2022-08-21T15:37:50;26.10;70.50
4811;DHT22;2419;51.276;6.472;2022-08-21T15:40:19;26.20;70.90
4811;DHT22;2419;51.276;6.472;2022-08-21T15:42:47;26.00;69.40
4811;DHT22;2419;51.276;6.472;2022-08-21T15:45:19;26.00;69.60
4811;DHT22;2419;51.276;6.472;2022-08-21T15:47:49;26.20;71.50
4811;DHT22;2419;51.276;6.472;2022-08-21T15:50:18;26.30;71.70
4811;DHT22;2419;51.276;6.472;2022-08-21T15:52:46;26.30;70.50
4811;DHT22;2419;51.276;6.472;2022-08-21T15:55:16;26.10;70.60
4811;DHT22;2419;51.276;6.472;2022-08-21T15:57:46;25.70;70.90
4811;DHT22;2419;51.276;6.472;2022-08-21T16:00:24;25.80;73.00
4811;DHT22;2419;51.276;6.472;2022-08-21T16:02:54;26.00;71.90
4811;DHT22;2419;51.276;6.472;2022-08-21T16:05:23;26.00;72.50
4811;DHT22;2419;51.276;6.472;2022-08-21T16:07:52;25.80;72.50
4811;DHT22;2419;51.276;6.472;2022-08-21T16:10:22;25.80;72.80
4811;DHT22;2419;51.276;6.472;2022-08-21T16:12:57;25.80;72.10
4811;DHT22;2419;51.276;6.472;2022-08-21T16:15:26;25.90;71.40
4811;DHT22;2419;51.276;6.472;2022-08-21T16:17:55;25.30;70.40
4811;DHT22;2419;51.276;6.472;2022-08-21T16:20:25;25.50;72.30
4811;DHT22;2419;51.276;6.472;2022-08-21T16:22:55;25.50;71.40
4811;DHT22;2419;51.276;6.472;2022-08-21T16:25:25;25.60;71.60
4811;DHT22;2419;51.276;6.472;2022-08-21T16:27:57;25.60;71.10
4811;DHT22;2419;51.276;6.472;2022-08-21T16:30:27;25.50;70.90
4811;DHT22;2419;51.276;6.472;2022-08-21T16:32:55;25.50;71.20
4811;DHT22;2419;51.276;6.472;2022-08-21T16:35:24;25.00;71.20
4811;DHT22;2419;51.276;6.472;2022-08-21T16:37:52;25.00;72.40